Valencia, Spain
Current Conditions -  °F | °C
As of 11:30 AM on Sunday 21 Dec 2014 (Local Time) from LEVC Reporting Station
Clear Clear  
Wind Chill: 59°   Ceiling: Unl
Heat Index: 59°   Visibility: 6mi
Dew Point: 48°   Wind: 0mph
Humidity: 67%   Direction: NA
Pressure: 30.5"   Gusts: NA
Location:  39.47°N, 0.38°W
Report Text: LEVC 211030Z 00000KT CAVOK 15/09 Q1033 NOSIG
Loading
Personal Weather Stations






























Interactive Weather Map New forecast layout! Learn more

10-Day Weather Forecast

Advertisements
Track Severe Weather on mobile